Happy Valentine's Day! 

Flight Track Log - Related Links

Times and Time Zones

All times are in EDT time to prevent confusion due to time zone crossing. See the UAL582 flight status page for this flight to view local times or setup timezone preferences in your user account.


Time Position Orientation Groundspeed Altitude Reporting Facility
EDT Latitude Longitude Course Direction KTS MPH feet Rate Location/Type
Mon 08:58:40 PM 41.9000 -87.9000 180° South 168 193 3,700  Level Chicago TRACON
Mon 09:00:00 PM 41.6462 -87.7517 180° South  Level Estimated
Mon 09:00:02 PM 41.8222 -87.8819 170° South 206 237 5,000  Level Chicago Center
Mon 09:01:00 PM 41.5344 -87.7003 176° South  Level Estimated
Mon 09:01:04 PM 41.7289 -87.8786 178° South 284 327 7,900  Level Chicago Center
Mon 09:02:00 PM 41.4225 -87.6492 187° South  Level Estimated
Mon 09:02:06 PM 41.6439 -87.8794 180° South 305 351 10,600  Level Chicago Center
Mon 09:03:08 PM 41.5561 -87.8772 179° South 314 361 13,000 1,839 Climbing Chicago Center
Mon 09:04:10 PM 41.4567 -87.8781 180° South 350 403 14,400 1,597 Climbing Chicago Center
Mon 09:05:12 PM 41.3475 -87.8831 182° South 383 441 16,300 1,887 Climbing Chicago Center
Mon 09:06:14 PM 41.2372 -87.8925 184° South 392 451 18,300 1,742 Climbing Chicago Center
Mon 09:07:16 PM 41.1242 -87.8886 179° South 403 464 19,900 1,645 Climbing Chicago Center
Mon 09:08:18 PM 40.9853 -87.8850 179° South 415 478 21,700 1,536 Climbing Chicago Center
Mon 09:09:21 PM 40.8669 -87.8803 178° South 425 489 23,100 1,248 Climbing Chicago Center
Mon 09:10:23 PM 40.7458 -87.8756 178° South 434 499 24,300 1,161 Climbing Chicago Center
Mon 09:11:25 PM 40.6211 -87.8725 179° South 446 513 25,500 1,161 Climbing Chicago Center
Mon 09:12:27 PM 40.4964 -87.8647 177° South 450 518 26,700 1,016 Climbing Chicago Center
Mon 09:13:29 PM 40.3706 -87.8292 168° South 465 535 27,600 919 Climbing Chicago Center
Mon 09:14:31 PM 40.2158 -87.7839 167° South 476 548 28,600 919 Climbing Chicago Center
Mon 09:15:33 PM 40.0994 -87.7525 168° South 486 559 29,500 1,065 Climbing Chicago Center
Mon 09:16:35 PM 39.9403 -87.7067 168° South 491 565 30,800 1,243 Climbing Chicago Center
Mon 09:17:24 PM 39.8328 -87.6778 168° South 488 562 31,800 1,189 Climbing Indianapolis Center
Mon 09:18:26 PM 39.7008 -87.6406 168° South 488 562 33,000 1,016 Climbing Indianapolis Center
Mon 09:19:28 PM 39.5711 -87.6042 168° South 483 556 33,900 927 Climbing Indianapolis Center
Mon 09:20:29 PM 39.4408 -87.5672 168° South 483 556 34,900 537 Climbing Indianapolis Center
Mon 09:21:31 PM 39.3100 -87.5306 168° South 483 556 35,000 48 Climbing Indianapolis Center
Mon 09:22:33 PM 39.1542 -87.4881 168° South 481 554 35,000  Level Indianapolis Center
Mon 09:23:34 PM 39.0300 -87.4539 168° South 482 555 35,000  Level Indianapolis Center
Mon 09:24:36 PM 38.8989 -87.4167 168° South 480 552 35,000  Level Indianapolis Center
Mon 09:25:37 PM 38.7689 -87.3808 168° South 479 551 35,000  Level Indianapolis Center
Mon 09:26:39 PM 38.6381 -87.3453 168° South 480 552 35,000  Level Indianapolis Center
Mon 09:27:41 PM 38.4808 -87.3036 168° South 480 552 35,000  Level Indianapolis Center
Mon 09:28:42 PM 38.3500 -87.2697 169° South 484 557 35,000  Level Indianapolis Center
Mon 09:29:44 PM 38.2197 -87.2344 168° South 489 563 35,000  Level Indianapolis Center
Mon 09:30:46 PM 38.0886 -87.1969 167° South 490 564 35,000  Level Indianapolis Center
Mon 09:31:47 PM 37.9569 -87.1606 168° South 487 560 35,000  Level Indianapolis Center
Mon 09:32:49 PM 37.8233 -87.1247 168° South 490 564 35,000  Level Indianapolis Center
Mon 09:33:50 PM 37.6633 -87.0817 168° South 489 563 35,000  Level Indianapolis Center
Mon 09:34:52 PM 37.5303 -87.0467 168° South 487 560 35,000  Level Indianapolis Center
Mon 09:35:54 PM 37.4014 -87.0167 170° South 489 563 35,000  Level Indianapolis Center
Mon 09:36:55 PM 37.2681 -86.9792 167° South 487 560 35,000  Level Indianapolis Center
Mon 09:37:57 PM 37.1333 -86.9722 178° South 479 551 35,000  Level Indianapolis Center
Mon 09:38:58 PM 37.0000 -86.9775 182° South 473 544 35,000  Level Indianapolis Center
Mon 09:40:00 PM 36.8661 -86.9844 182° South 475 547 35,000  Level Indianapolis Center
Mon 09:41:02 PM 36.7094 -86.9911 182° South 478 550 35,000  Level Indianapolis Center
Mon 09:42:03 PM 36.5753 -86.9986 183° South 479 551 35,000  Level Indianapolis Center
Mon 09:43:05 PM 36.4431 -87.0081 183° South 476 548 35,000  Level Indianapolis Center
Mon 09:44:06 PM 36.3092 -87.0181 183° South 487 560 35,000  Level Indianapolis Center
Mon 09:45:08 PM 36.1764 -87.0219 181° South 481 554 35,000  Level Indianapolis Center
Mon 09:46:09 PM 36.0522 -86.9694 161° South 475 547 35,000  Level Indianapolis Center
Mon 09:47:26 PM 35.8911 -86.8903 158° South 470 541 35,000  Level Memphis Center
Mon 09:49:09 PM 35.6814 -86.7844 158° South 470 541 35,000  Level Atlanta Center
Mon 09:50:09 PM 35.5597 -86.7244 158° South 470 541 35,000  Level Atlanta Center
Mon 09:51:09 PM 35.4400 -86.6644 158° South 470 541 35,000  Level Atlanta Center
Mon 09:52:09 PM 35.3225 -86.5994 156° South 464 534 35,000  Level Atlanta Center
Mon 09:53:09 PM 35.2006 -86.5372 157° South 469 540 35,000  Level Atlanta Center
Mon 09:54:09 PM 35.0786 -86.4778 158° South 469 540 35,000  Level Atlanta Center
Mon 09:55:09 PM 34.9567 -86.4183 158° South 469 540 35,000  Level Atlanta Center
Mon 09:56:09 PM 34.8369 -86.3569 157° South 469 540 35,000  Level Atlanta Center
Mon 09:57:09 PM 34.7169 -86.3006 159° South 469 540 35,000  Level Atlanta Center
Mon 09:58:09 PM 34.5969 -86.2442 159° South 469 540 35,000  Level Atlanta Center
Mon 09:59:09 PM 34.4789 -86.1858 158° South 469 540 35,000  Level Atlanta Center
Mon 10:00:09 PM 34.3589 -86.1272 158° South 469 540 35,000  Level Atlanta Center
Mon 10:01:09 PM 34.2389 -86.0692 158° South 469 540 35,000  Level Atlanta Center
Mon 10:02:09 PM 34.1208 -86.0136 159° South 464 534 35,000  Level Atlanta Center
Mon 10:03:09 PM 33.9922 -85.9506 158° South 464 534 35,000  Level Atlanta Center
Mon 10:04:09 PM 33.8742 -85.8953 159° South 464 534 35,000  Level Atlanta Center
Mon 10:05:09 PM 33.7581 -85.8378 158° South 459 528 35,000  Level Atlanta Center
Mon 10:06:09 PM 33.6419 -85.7881 160° South 459 528 35,000  Level Atlanta Center
Mon 10:07:09 PM 33.5239 -85.7333 159° South 447 514 35,000  Level Atlanta Center
Mon 10:08:09 PM 33.4036 -85.6786 159° South 452 520 35,000  Level Atlanta Center
Mon 10:09:09 PM 33.3039 -85.6269 157° South 452 520 35,000 50 Level Atlanta Center
Mon 10:10:09 PM 33.1858 -85.5653 156° South 452 520 35,100 550 Climbing Atlanta Center
Mon 10:11:09 PM 33.0675 -85.5111 159° South 452 520 36,100 950 Climbing Atlanta Center
Mon 10:12:09 PM 32.9533 -85.4597 159° South 452 520 37,000 450 Climbing Atlanta Center
Mon 10:13:09 PM 32.8392 -85.4061 158° South 447 514 37,000  Level Atlanta Center
Mon 10:14:09 PM 32.7206 -85.3500 158° South 447 514 37,000  Level Atlanta Center
Mon 10:15:09 PM 32.6022 -85.2964 159° South 452 520 37,000  Level Atlanta Center
Mon 10:16:09 PM 32.4858 -85.2406 158° South 452 520 37,000  Level Atlanta Center
Mon 10:17:09 PM 32.3717 -85.1897 159° South 452 520 37,000  Level Atlanta Center
Mon 10:18:09 PM 32.2386 -85.1317 160° South 446 513 37,000  Level Atlanta Center
Mon 10:19:09 PM 32.1367 -85.0861 159° South 445 512 37,000  Level Atlanta Center
Mon 10:20:04 PM 32.0169 -85.0292 158° South 445 512 37,000  Level Jacksonville Center
Mon 10:21:04 PM 31.9072 -84.9778 158° South 459 528 37,000 -50 Level Jacksonville Center
Mon 10:22:04 PM 31.7889 -84.9286 161° South 442 509 36,900  Descending Jacksonville Center
Mon 10:23:04 PM 31.6772 -84.8747 158° South 442 509 37,000 50 Climbing Jacksonville Center
Mon 10:24:04 PM 31.5675 -84.8117 154° Southeast 442 509 37,000  Level Jacksonville Center
Mon 10:25:04 PM 31.4578 -84.7483 154° Southeast 447 514 37,000  Level Jacksonville Center
Mon 10:26:04 PM 31.3439 -84.6853 155° Southeast 447 514 37,000  Level Jacksonville Center
Mon 10:27:04 PM 31.2319 -84.6225 154° Southeast 442 509 37,000  Level Jacksonville Center
Mon 10:28:04 PM 31.1200 -84.5572 153° Southeast 442 509 37,000  Level Jacksonville Center
Mon 10:29:04 PM 31.0081 -84.4972 155° Southeast 442 509 37,000  Level Jacksonville Center
Mon 10:30:04 PM 30.8961 -84.4322 154° Southeast 442 509 37,000  Level Jacksonville Center
Mon 10:31:04 PM 30.7842 -84.3678 154° Southeast 442 509 37,000  Level Jacksonville Center
Mon 10:32:04 PM 30.6700 -84.3078 156° South 442 509 37,000  Level Jacksonville Center
Mon 10:33:04 PM 30.5558 -84.2411 153° Southeast 447 514 37,000  Level Jacksonville Center
Mon 10:34:04 PM 30.4625 -84.1892 154° Southeast 447 514 37,000  Level Jacksonville Center
Mon 10:35:04 PM 30.3275 -84.1150 155° Southeast 452 520 37,000  Level Jacksonville Center
Mon 10:36:04 PM 30.2092 -84.0511 155° Southeast 463 533 37,000 -50 Level Jacksonville Center
Mon 10:37:04 PM 30.0947 -83.9897 155° Southeast 463 533 36,900 -250 Descending Jacksonville Center
Mon 10:38:04 PM 29.9889 -83.9286 153° Southeast 463 533 36,500 -1,350 Descending Jacksonville Center
Mon 10:39:04 PM 29.8725 -83.8650 155° Southeast 463 533 34,200 -1,650 Descending Jacksonville Center
Mon 10:40:04 PM 29.7558 -83.8017 155° Southeast 463 533 33,200 -1,000 Descending Jacksonville Center
Mon 10:41:04 PM 29.6394 -83.7383 155° Southeast 463 533 32,200 -950 Descending Jacksonville Center
Mon 10:42:04 PM 29.5231 -83.6753 155° Southeast 463 533 31,300 -1,050 Descending Jacksonville Center
Mon 10:43:04 PM 29.4106 -83.6125 154° Southeast 458 527 30,100 -1,500 Descending Jacksonville Center
Mon 10:44:04 PM 29.2983 -83.5522 155° Southeast 452 520 28,300 -1,550 Descending Jacksonville Center
Mon 10:45:04 PM 29.1878 -83.4919 155° Southeast 445 512 27,000 -900 Descending Jacksonville Center
Mon 10:46:04 PM 29.0817 -83.4461 159° South 431 496 26,500 -1,300 Descending Jacksonville Center
Mon 10:47:04 PM 28.9669 -83.4194 169° South 415 478 24,400 -1,900 Descending Jacksonville Center
Mon 10:48:04 PM 28.8564 -83.4047 173° South 415 478 22,700 -1,750 Descending Jacksonville Center
Mon 10:49:04 PM 28.7500 -83.3828 170° South 404 465 20,900 -1,900 Descending Jacksonville Center
Mon 10:50:04 PM 28.6458 -83.3633 171° South 394 453 18,900 -1,800 Descending Jacksonville Center
Mon 10:51:04 PM 28.5478 -83.3344 165° South 382 440 17,300 -2,107 Descending Jacksonville Center
Mon 10:52:52 PM 28.4167 -83.2167 142° Southeast 339 390 13,000 -1,893 Descending Tampa TRACON
Mon 10:53:52 PM 28.3500 -83.1333 132° Southeast 332 382 12,000 -1,450 Descending Tampa TRACON
Mon 10:54:52 PM 28.3000 -83.0500 124° Southeast 330 380 10,100 -1,000 Descending Tampa TRACON
Mon 10:55:52 PM 28.2500 -82.9500 120° Southeast 325 374 10,000 -50 Descending Tampa TRACON
Mon 10:56:52 PM 28.2000 -82.8833 130° Southeast 323 372 10,000 -400 Level Tampa TRACON
Mon 10:57:52 PM 28.1500 -82.8000 124° Southeast 293 337 9,200 -1,600 Descending Tampa TRACON
Mon 10:58:52 PM 28.1000 -82.7333 130° Southeast 285 328 6,800 -1,810 Descending Tampa TRACON
Mon 10:59:58 PM 28.0500 -82.6500 124° Southeast 276 318 5,400 -857 Descending Tampa TRACON
Mon 11:00:58 PM 28.0000 -82.6167 150° Southeast 233 268 5,000 -300 Descending Tampa TRACON
Mon 11:01:58 PM 27.9333 -82.6167 180° South 205 236 4,800 -650 Descending Tampa TRACON
Mon 11:02:58 PM 27.8833 -82.6167 180° South 204 235 3,700 -1,100 Descending Tampa TRACON

Login

Don't have an account? Register now (free) for customized features, flight alerts, and more!